Time;durP1;ratioP1;P1;durP2;ratioP2;P2;SDS_P1;SDS_P2;PMS_P1;PMS_P2;Temp;Humidity;BMP_temperature;BMP_pressure;BME280_temperature;BME280_humidity;BME280_pressure;Samples;Min_cycle;Max_cycle;Signal;HPM_P1;HPM_P2
2023/09/10 00:00:11;;;;;;;11.50;7.63;;;;;;;;;;5015859;28;20154;-70
2023/09/10 00:02:57;;;;;;;11.70;7.35;;;;;;;;;;5038423;28;20442;-69
2023/09/10 00:05:42;;;;;;;12.73;8.55;;;;;;;;;;5002300;28;20033;-73
2023/09/10 00:08:28;;;;;;;16.10;8.32;;;;;;;;;;5015257;28;20033;-75
2023/09/10 00:11:13;;;;;;;13.63;7.65;;;;;;;;;;5039185;28;20529;-73
2023/09/10 00:13:58;;;;;;;14.52;8.65;;;;;;;;;;5015484;28;20034;-72
2023/09/10 00:16:43;;;;;;;11.68;9.10;;;;;;;;;;5041523;28;20061;-73
2023/09/10 00:19:29;;;;;;;13.90;9.20;;;;;;;;;;5042754;28;20056;-73
2023/09/10 00:22:14;;;;;;;15.60;9.98;;;;;;;;;;5036914;28;20365;-70
2023/09/10 00:24:59;;;;;;;11.15;8.13;;;;;;;;;;4993571;28;20029;-68
2023/09/10 00:27:44;;;;;;;15.32;9.13;;;;;;;;;;5012998;28;20087;-68
2023/09/10 00:30:29;;;;;;;13.40;7.90;;;;;;;;;;5029118;28;20083;-66
2023/09/10 00:33:17;;;;;;;12.82;7.22;;;;;;;;;;5037873;28;20257;-68
2023/09/10 00:36:02;;;;;;;10.77;7.45;;;;;;;;;;5029346;28;20131;-67
2023/09/10 00:38:47;;;;;;;11.18;7.32;;;;;;;;;;5015359;28;20040;-67
2023/09/10 00:41:33;;;;;;;11.68;7.55;;;;;;;;;;5040564;28;20064;-74
2023/09/10 00:44:18;;;;;;;10.50;8.00;;;;;;;;;;5050752;22;20060;-80
2023/09/10 00:47:03;;;;;;;13.38;9.48;;;;;;;;;;4986989;28;20133;-80
2023/09/10 00:49:49;;;;;;;15.13;8.25;;;;;;;;;;5014844;28;20033;-79
2023/09/10 00:52:36;;;;;;;13.95;8.60;;;;;;;;;;4993412;28;20049;-79
2023/09/10 00:55:22;;;;;;;13.52;9.23;;;;;;;;;;4999734;28;20590;-80
2023/09/10 00:58:08;;;;;;;14.05;9.43;;;;;;;;;;4994503;28;20041;-81
2023/09/10 01:00:53;;;;;;;14.63;9.05;;;;;;;;;;5014538;28;20037;-78
2023/09/10 01:03:45;;;;;;;11.60;8.30;;;;;;;;;;5009831;28;20025;-79
2023/09/10 01:06:30;;;;;;;13.57;8.32;;;;;;;;;;5003827;28;20084;-79
2023/09/10 01:09:15;;;;;;;11.57;6.97;;;;;;;;;;4989891;28;20499;-80
2023/09/10 01:12:00;;;;;;;11.88;7.32;;;;;;;;;;4999261;28;20396;-79
2023/09/10 01:14:57;;;;;;;11.65;7.28;;;;;;;;;;5001718;28;20457;-78
2023/09/10 01:17:48;;;;;;;13.45;7.78;;;;;;;;;;5014358;28;20403;-67
2023/09/10 01:20:49;;;;;;;15.77;8.65;;;;;;;;;;5014249;28;20472;-78
2023/09/10 01:23:37;;;;;;;12.90;7.07;;;;;;;;;;5001790;28;20049;-78
2023/09/10 01:26:22;;;;;;;13.98;7.93;;;;;;;;;;5011937;28;20029;-79
2023/09/10 01:29:14;;;;;;;12.27;7.72;;;;;;;;;;4987107;28;20034;-79
2023/09/10 01:32:09;;;;;;;11.52;6.70;;;;;;;;;;5003043;28;20109;-77
2023/09/10 01:35:17;;;;;;;11.60;8.17;;;;;;;;;;5004137;28;20029;-79
2023/09/10 01:38:17;;;;;;;14.10;8.50;;;;;;;;;;5011883;28;20025;-69
2023/09/10 01:41:03;;;;;;;9.68;7.38;;;;;;;;;;5014712;28;20043;-71
2023/09/10 01:43:49;;;;;;;10.75;6.80;;;;;;;;;;4993561;28;20038;-72
2023/09/10 01:46:36;;;;;;;11.32;8.05;;;;;;;;;;5014893;28;20036;-71
2023/09/10 01:49:21;;;;;;;11.82;7.63;;;;;;;;;;5013245;28;20040;-70
2023/09/10 01:52:06;;;;;;;10.00;7.15;;;;;;;;;;4994691;28;20384;-72
2023/09/10 01:54:52;;;;;;;11.38;7.28;;;;;;;;;;5009766;28;20163;-70
2023/09/10 01:57:37;;;;;;;11.02;6.90;;;;;;;;;;4991974;28;20596;-62
2023/09/10 02:00:22;;;;;;;9.55;7.07;;;;;;;;;;4998083;28;20373;-62
2023/09/10 02:03:07;;;;;;;12.23;7.18;;;;;;;;;;5007013;28;20030;-62
2023/09/10 02:05:53;;;;;;;11.75;7.53;;;;;;;;;;5010368;28;20053;-62
2023/09/10 02:08:38;;;;;;;10.30;6.88;;;;;;;;;;5010614;28;20037;-64
2023/09/10 02:11:25;;;;;;;12.73;7.80;;;;;;;;;;5002578;28;20030;-66
2023/09/10 02:14:10;;;;;;;13.45;7.13;;;;;;;;;;5006460;28;20479;-68
2023/09/10 02:16:55;;;;;;;14.65;7.35;;;;;;;;;;5013123;28;20462;-73
2023/09/10 02:19:41;;;;;;;12.75;7.05;;;;;;;;;;5006370;28;20064;-74
2023/09/10 02:22:26;;;;;;;11.10;6.85;;;;;;;;;;5004267;28;20033;-73
2023/09/10 02:25:12;;;;;;;12.63;7.00;;;;;;;;;;4996012;28;20577;-73
2023/09/10 02:27:58;;;;;;;13.80;7.90;;;;;;;;;;5000713;28;20492;-74
2023/09/10 02:30:43;;;;;;;8.73;6.78;;;;;;;;;;5014076;28;20042;-75
2023/09/10 02:33:28;;;;;;;11.68;6.97;;;;;;;;;;5013743;28;20083;-74
2023/09/10 02:36:13;;;;;;;14.82;7.63;;;;;;;;;;5001337;28;20041;-71
2023/09/10 02:38:58;;;;;;;12.77;7.60;;;;;;;;;;5016609;28;20033;-71
2023/09/10 02:41:44;;;;;;;12.48;7.35;;;;;;;;;;4999108;28;20429;-72
2023/09/10 02:44:30;;;;;;;15.15;8.07;;;;;;;;;;4996385;28;20637;-70
2023/09/10 02:47:15;;;;;;;11.82;7.70;;;;;;;;;;4997897;28;20512;-70
2023/09/10 02:50:00;;;;;;;14.95;7.28;;;;;;;;;;4997671;28;20030;-77
2023/09/10 02:52:50;;;;;;;10.98;7.35;;;;;;;;;;4995723;28;20041;-70
2023/09/10 02:55:36;;;;;;;14.63;7.53;;;;;;;;;;4996339;28;20570;-72
2023/09/10 02:58:21;;;;;;;12.50;7.82;;;;;;;;;;4995075;28;20034;-69
2023/09/10 03:01:06;;;;;;;12.27;7.47;;;;;;;;;;4996015;28;20046;-71
2023/09/10 03:03:51;;;;;;;12.15;7.57;;;;;;;;;;4996052;28;20080;-70
2023/09/10 03:06:37;;;;;;;10.70;8.00;;;;;;;;;;4984893;28;20747;-71
2023/09/10 03:09:22;;;;;;;10.40;7.72;;;;;;;;;;4996744;28;20099;-62
2023/09/10 03:12:20;;;;;;;9.98;6.65;;;;;;;;;;4997039;28;20105;-74
2023/09/10 03:15:06;;;;;;;9.75;6.93;;;;;;;;;;4994940;28;20021;-74
2023/09/10 03:17:51;;;;;;;11.63;6.93;;;;;;;;;;4996689;28;20029;-73
2023/09/10 03:20:36;;;;;;;12.55;7.53;;;;;;;;;;4996576;28;20612;-74
2023/09/10 03:23:22;;;;;;;10.52;8.02;;;;;;;;;;4993069;28;20026;-74
2023/09/10 03:26:10;;;;;;;15.00;7.95;;;;;;;;;;4985020;28;20485;-63
2023/09/10 03:28:55;;;;;;;13.60;7.30;;;;;;;;;;4995115;28;20109;-64
2023/09/10 03:31:40;;;;;;;11.75;7.50;;;;;;;;;;4996840;28;20130;-78
2023/09/10 03:34:25;;;;;;;13.48;7.75;;;;;;;;;;4996506;28;20508;-79
2023/09/10 03:37:10;;;;;;;13.68;8.07;;;;;;;;;;4995332;28;20037;-78
2023/09/10 03:39:56;;;;;;;12.02;7.68;;;;;;;;;;4996274;28;20432;-78
2023/09/10 03:42:41;;;;;;;13.82;8.25;;;;;;;;;;4996501;28;20116;-78
2023/09/10 03:45:26;;;;;;;9.20;6.78;;;;;;;;;;4994391;28;20033;-74
2023/09/10 03:48:12;;;;;;;14.60;7.53;;;;;;;;;;4995536;28;20413;-67
2023/09/10 03:50:58;;;;;;;10.85;7.60;;;;;;;;;;4996028;28;20386;-70
2023/09/10 03:53:43;;;;;;;13.90;8.13;;;;;;;;;;4998264;28;20130;-70
2023/09/10 03:56:28;;;;;;;11.80;7.75;;;;;;;;;;4996232;28;20044;-70
2023/09/10 03:59:13;;;;;;;11.52;7.60;;;;;;;;;;4994674;28;20033;-70
2023/09/10 04:01:59;;;;;;;12.10;7.47;;;;;;;;;;4996029;28;20531;-69
2023/09/10 04:04:46;;;;;;;12.13;9.00;;;;;;;;;;4996277;28;20065;-63
2023/09/10 04:07:31;;;;;;;10.48;7.03;;;;;;;;;;4995522;28;20366;-74
2023/09/10 04:10:17;;;;;;;9.43;6.95;;;;;;;;;;4996193;28;20029;-75
2023/09/10 04:13:02;;;;;;;10.68;7.25;;;;;;;;;;4995966;28;20026;-75
2023/09/10 04:15:47;;;;;;;12.60;7.60;;;;;;;;;;4994896;28;20083;-75
2023/09/10 04:18:34;;;;;;;11.35;6.93;;;;;;;;;;4996298;28;20410;-75
2023/09/10 04:21:19;;;;;;;13.18;7.65;;;;;;;;;;4991634;28;20041;-67
2023/09/10 04:24:05;;;;;;;12.48;7.13;;;;;;;;;;4984091;28;20497;-69
2023/09/10 04:26:50;;;;;;;11.98;7.10;;;;;;;;;;4995955;28;20065;-69
2023/09/10 04:29:35;;;;;;;12.07;7.68;;;;;;;;;;4995347;28;20117;-70
2023/09/10 04:32:21;;;;;;;11.73;6.88;;;;;;;;;;4995967;28;20037;-69
2023/09/10 04:35:06;;;;;;;12.18;7.60;;;;;;;;;;4994499;28;20061;-70
2023/09/10 04:37:51;;;;;;;12.13;7.55;;;;;;;;;;4995693;28;20565;-66
2023/09/10 04:40:37;;;;;;;12.48;7.35;;;;;;;;;;4969605;28;20037;-74
2023/09/10 04:43:22;;;;;;;10.23;6.80;;;;;;;;;;4995263;28;20481;-71
2023/09/10 04:46:07;;;;;;;11.55;7.63;;;;;;;;;;4994342;28;20096;-72
2023/09/10 04:48:53;;;;;;;11.93;8.23;;;;;;;;;;4995474;28;20034;-71
2023/09/10 04:51:38;;;;;;;11.40;6.80;;;;;;;;;;4995749;28;20056;-71
2023/09/10 04:54:23;;;;;;;12.10;7.22;;;;;;;;;;4997192;28;20030;-71
2023/09/10 04:57:09;;;;;;;13.35;7.35;;;;;;;;;;4995062;28;20518;-71
2023/09/10 04:59:55;;;;;;;9.90;6.40;;;;;;;;;;4994535;28;20030;-68
2023/09/10 05:02:40;;;;;;;15.43;8.75;;;;;;;;;;4994695;28;20484;-69
2023/09/10 05:05:25;;;;;;;12.38;7.60;;;;;;;;;;4994828;28;20068;-71
2023/09/10 05:08:10;;;;;;;10.07;6.53;;;;;;;;;;4993590;28;20029;-69
2023/09/10 05:10:55;;;;;;;10.07;7.82;;;;;;;;;;4994718;28;20038;-69
2023/09/10 05:13:41;;;;;;;11.65;6.50;;;;;;;;;;4994922;28;20388;-68
2023/09/10 05:16:26;;;;;;;12.27;8.20;;;;;;;;;;4993977;28;20060;-68
2023/09/10 05:19:11;;;;;;;11.02;7.05;;;;;;;;;;4994169;28;20052;-64
2023/09/10 05:21:57;;;;;;;12.60;8.70;;;;;;;;;;4993736;28;20021;-63
2023/09/10 05:24:42;;;;;;;15.50;7.53;;;;;;;;;;4992935;28;20030;-62
2023/09/10 05:27:27;;;;;;;12.93;7.95;;;;;;;;;;4994694;28;20041;-64
2023/09/10 05:30:13;;;;;;;11.05;7.03;;;;;;;;;;4993442;28;20030;-63
2023/09/10 05:32:58;;;;;;;10.95;8.00;;;;;;;;;;4994884;28;20037;-63
2023/09/10 05:35:52;;;;;;;12.40;7.32;;;;;;;;;;4995135;28;20030;-80
2023/09/10 05:38:37;;;;;;;10.75;7.53;;;;;;;;;;4992632;28;20149;-74
2023/09/10 05:41:23;;;;;;;12.95;7.35;;;;;;;;;;4993926;28;20034;-74
2023/09/10 05:44:08;;;;;;;12.43;8.48;;;;;;;;;;4993743;28;20037;-75
2023/09/10 05:46:53;;;;;;;12.88;8.18;;;;;;;;;;4992724;28;20041;-75
2023/09/10 05:49:39;;;;;;;14.10;8.68;;;;;;;;;;4994124;28;20477;-75
2023/09/10 05:52:24;;;;;;;11.55;8.02;;;;;;;;;;4995698;28;20058;-77
2023/09/10 05:55:09;;;;;;;10.38;7.05;;;;;;;;;;4993475;28;20116;-73
2023/09/10 05:57:55;;;;;;;11.02;7.60;;;;;;;;;;4994087;28;20381;-64
2023/09/10 06:00:40;;;;;;;15.05;7.50;;;;;;;;;;4993420;28;20038;-64
2023/09/10 06:03:25;;;;;;;11.73;6.97;;;;;;;;;;4994302;28;20029;-63
2023/09/10 06:06:10;;;;;;;12.80;7.15;;;;;;;;;;4996479;28;20121;-62
2023/09/10 06:08:56;;;;;;;12.55;6.97;;;;;;;;;;4988847;28;20481;-63
2023/09/10 06:11:41;;;;;;;15.95;8.30;;;;;;;;;;4998156;28;20038;-61
2023/09/10 06:14:27;;;;;;;10.10;7.40;;;;;;;;;;4997972;28;20034;-69
2023/09/10 06:17:13;;;;;;;11.93;7.80;;;;;;;;;;5008610;23;20050;-70
2023/09/10 06:19:58;;;;;;;13.07;8.63;;;;;;;;;;4988755;28;20033;-70
2023/09/10 06:22:43;;;;;;;14.40;8.70;;;;;;;;;;5002642;28;20037;-70
2023/09/10 06:25:28;;;;;;;9.68;6.85;;;;;;;;;;5002541;28;20029;-70
2023/09/10 06:28:13;;;;;;;12.50;7.10;;;;;;;;;;5002384;28;20033;-71
2023/09/10 06:30:59;;;;;;;10.20;7.18;;;;;;;;;;5002278;28;20088;-65
2023/09/10 06:33:44;;;;;;;10.50;6.75;;;;;;;;;;5002143;28;20550;-71
2023/09/10 06:36:29;;;;;;;10.95;6.97;;;;;;;;;;5002297;28;20037;-72
2023/09/10 06:39:14;;;;;;;10.13;6.57;;;;;;;;;;5002347;28;20026;-73
2023/09/10 06:42:00;;;;;;;11.95;7.55;;;;;;;;;;4988202;28;20026;-72
2023/09/10 06:44:45;;;;;;;18.67;7.88;;;;;;;;;;5001835;28;20026;-72
2023/09/10 06:47:30;;;;;;;13.13;7.32;;;;;;;;;;5001856;28;20030;-71
2023/09/10 06:50:16;;;;;;;16.58;6.72;;;;;;;;;;5002028;28;20044;-66
2023/09/10 06:53:01;;;;;;;11.13;6.70;;;;;;;;;;5001969;28;20038;-65
2023/09/10 06:55:46;;;;;;;13.10;6.57;;;;;;;;;;5001947;28;20103;-65
2023/09/10 06:58:31;;;;;;;12.32;6.30;;;;;;;;;;5001978;28;20061;-65
2023/09/10 07:01:18;;;;;;;8.50;6.03;;;;;;;;;;5001845;28;20037;-65
2023/09/10 07:04:16;;;;;;;9.15;5.60;;;;;;;;;;5001347;28;20045;-66
2023/09/10 07:07:01;;;;;;;9.00;5.97;;;;;;;;;;5001652;28;20385;-65
2023/09/10 07:09:47;;;;;;;9.40;5.82;;;;;;;;;;4988152;28;20068;-66
2023/09/10 07:12:32;;;;;;;17.52;6.38;;;;;;;;;;5001199;28;20065;-68
2023/09/10 07:15:17;;;;;;;11.23;7.32;;;;;;;;;;5001182;28;20109;-68
2023/09/10 07:18:04;;;;;;;10.05;7.07;;;;;;;;;;5015034;28;20403;-68
2023/09/10 07:20:49;;;;;;;11.07;6.28;;;;;;;;;;5015215;28;20391;-68
2023/09/10 07:23:35;;;;;;;9.38;5.97;;;;;;;;;;5001774;28;20100;-68
2023/09/10 07:26:20;;;;;;;9.13;6.28;;;;;;;;;;5001603;28;20101;-65
2023/09/10 07:29:06;;;;;;;10.23;7.07;;;;;;;;;;5016323;28;20037;-72
2023/09/10 07:31:52;;;;;;;12.75;6.57;;;;;;;;;;5015659;28;20045;-72
2023/09/10 07:34:38;;;;;;;13.52;6.22;;;;;;;;;;5001379;28;20022;-72
2023/09/10 07:37:23;;;;;;;9.15;6.10;;;;;;;;;;5014500;28;20033;-72
2023/09/10 07:40:09;;;;;;;9.52;6.25;;;;;;;;;;5014380;28;20029;-72
2023/09/10 07:42:58;;;;;;;11.27;5.63;;;;;;;;;;5001171;28;20341;-72
2023/09/10 07:45:45;;;;;;;9.40;6.30;;;;;;;;;;5000598;28;20048;-67
2023/09/10 07:48:31;;;;;;;10.35;6.28;;;;;;;;;;5015554;28;20038;-66
2023/09/10 07:51:16;;;;;;;11.50;6.22;;;;;;;;;;5015338;28;20388;-68
2023/09/10 07:54:08;;;;;;;9.88;5.50;;;;;;;;;;5000343;28;20065;-68
2023/09/10 07:56:53;;;;;;;9.95;6.18;;;;;;;;;;5014892;28;20038;-66
2023/09/10 07:59:39;;;;;;;10.48;6.40;;;;;;;;;;5014131;28;20117;-66
2023/09/10 08:02:26;;;;;;;8.52;5.85;;;;;;;;;;5013810;28;20041;-65
2023/09/10 08:05:12;;;;;;;10.80;7.38;;;;;;;;;;5015830;28;20034;-67
2023/09/10 08:08:02;;;;;;;8.40;5.80;;;;;;;;;;5014002;28;20037;-65
2023/09/10 08:10:48;;;;;;;10.20;6.18;;;;;;;;;;5015105;28;20068;-66
2023/09/10 08:13:33;;;;;;;12.10;6.53;;;;;;;;;;5013900;28;20534;-65
2023/09/10 08:16:19;;;;;;;11.82;5.80;;;;;;;;;;5014712;28;20034;-66
2023/09/10 08:19:05;;;;;;;14.88;7.70;;;;;;;;;;5015387;28;20084;-65
2023/09/10 08:21:50;;;;;;;10.50;6.95;;;;;;;;;;5014234;28;20488;-72
2023/09/10 08:24:36;;;;;;;9.15;7.15;;;;;;;;;;5013820;28;20045;-72
2023/09/10 08:27:21;;;;;;;10.15;5.95;;;;;;;;;;5013363;28;20022;-71
2023/09/10 08:30:09;;;;;;;9.85;6.45;;;;;;;;;;5013458;28;20108;-72
2023/09/10 08:32:54;;;;;;;11.50;6.40;;;;;;;;;;5014327;28;20041;-72
2023/09/10 08:35:44;;;;;;;9.73;7.03;;;;;;;;;;4999695;28;20025;-72
2023/09/10 08:38:30;;;;;;;10.45;6.55;;;;;;;;;;5014600;28;20038;-72
2023/09/10 08:41:31;;;;;;;8.73;6.55;;;;;;;;;;5013418;28;20030;-69
2023/09/10 08:44:17;;;;;;;8.27;6.30;;;;;;;;;;5014714;28;20437;-67
2023/09/10 08:47:06;;;;;;;12.18;6.65;;;;;;;;;;5014747;28;20033;-65
2023/09/10 08:49:54;;;;;;;10.05;6.20;;;;;;;;;;5014462;28;20026;-65
2023/09/10 08:52:41;;;;;;;12.43;6.50;;;;;;;;;;5014295;28;20149;-66
2023/09/10 08:55:27;;;;;;;8.63;6.38;;;;;;;;;;5013752;28;20030;-66
2023/09/10 08:58:14;;;;;;;9.60;5.97;;;;;;;;;;5014803;28;20026;-74
2023/09/10 09:01:00;;;;;;;8.25;6.10;;;;;;;;;;5014261;28;20030;-69
2023/09/10 09:03:47;;;;;;;10.13;6.82;;;;;;;;;;4999128;28;20061;-70
2023/09/10 09:06:35;;;;;;;9.25;5.85;;;;;;;;;;5013720;28;20102;-70
2023/09/10 09:09:22;;;;;;;12.52;5.88;;;;;;;;;;5014234;28;20109;-70
2023/09/10 09:12:09;;;;;;;12.32;6.53;;;;;;;;;;5013974;28;20037;-70
2023/09/10 09:14:55;;;;;;;9.65;6.10;;;;;;;;;;5014082;28;20073;-70
2023/09/10 09:17:41;;;;;;;9.93;5.65;;;;;;;;;;4999035;28;20022;-65
2023/09/10 09:20:27;;;;;;;10.88;5.88;;;;;;;;;;5014000;28;20034;-66
2023/09/10 09:23:17;;;;;;;12.60;6.85;;;;;;;;;;5013883;28;20112;-67
2023/09/10 09:26:05;;;;;;;11.40;7.10;;;;;;;;;;5013919;28;20413;-66
2023/09/10 09:28:50;;;;;;;10.02;7.18;;;;;;;;;;5014453;28;20030;-65
2023/09/10 09:31:36;;;;;;;12.52;6.47;;;;;;;;;;4998991;28;20066;-67
2023/09/10 09:34:21;;;;;;;12.27;6.93;;;;;;;;;;5013158;28;20029;-65
2023/09/10 09:37:07;;;;;;;10.40;6.10;;;;;;;;;;5012842;28;20030;-67
2023/09/10 09:39:53;;;;;;;10.68;6.78;;;;;;;;;;5012205;28;20029;-65
2023/09/10 09:42:38;;;;;;;9.65;7.20;;;;;;;;;;5012684;28;20067;-65
2023/09/10 09:45:25;;;;;;;10.38;7.00;;;;;;;;;;5015859;28;20034;-65
2023/09/10 09:48:11;;;;;;;14.88;6.55;;;;;;;;;;5017509;28;20037;-66
2023/09/10 09:50:57;;;;;;;9.85;6.40;;;;;;;;;;5016744;28;20030;-66
2023/09/10 09:53:43;;;;;;;11.05;5.97;;;;;;;;;;5017809;28;20026;-65
2023/09/10 09:56:29;;;;;;;7.57;5.60;;;;;;;;;;5017567;28;20041;-66
2023/09/10 09:59:15;;;;;;;8.63;5.82;;;;;;;;;;5003403;28;20034;-66
2023/09/10 10:02:01;;;;;;;11.40;5.80;;;;;;;;;;5017441;28;20029;-66
2023/09/10 10:04:47;;;;;;;9.35;6.28;;;;;;;;;;5018070;28;20029;-66
2023/09/10 10:07:36;;;;;;;9.20;5.78;;;;;;;;;;5018006;28;20026;-66
2023/09/10 10:10:22;;;;;;;10.60;6.30;;;;;;;;;;5017355;28;20049;-64
2023/09/10 10:13:08;;;;;;;9.57;6.15;;;;;;;;;;5015810;28;20070;-72
2023/09/10 10:15:55;;;;;;;8.38;6.05;;;;;;;;;;5017492;28;20429;-68
2023/09/10 10:18:40;;;;;;;9.93;5.00;;;;;;;;;;5017649;28;20097;-70
2023/09/10 10:21:27;;;;;;;12.70;6.50;;;;;;;;;;5016395;28;20030;-69
2023/09/10 10:24:15;;;;;;;12.20;6.28;;;;;;;;;;5017037;28;20060;-68
2023/09/10 10:27:01;;;;;;;10.90;6.53;;;;;;;;;;5017646;28;20037;-68
2023/09/10 10:29:46;;;;;;;9.68;5.60;;;;;;;;;;5017108;28;20036;-69
2023/09/10 10:32:37;;;;;;;9.77;6.10;;;;;;;;;;5016507;28;20032;-64
2023/09/10 10:35:24;;;;;;;9.77;7.05;;;;;;;;;;5016830;28;20507;-66
2023/09/10 10:38:13;;;;;;;10.00;5.95;;;;;;;;;;5017658;28;20056;-66
2023/09/10 10:41:02;;;;;;;9.50;5.88;;;;;;;;;;5016765;28;20069;-67
2023/09/10 10:43:52;;;;;;;12.90;6.47;;;;;;;;;;5016608;28;20042;-66
2023/09/10 10:46:39;;;;;;;12.90;6.28;;;;;;;;;;5016760;28;20034;-67
2023/09/10 10:49:25;;;;;;;13.55;6.75;;;;;;;;;;5016791;28;20397;-71
2023/09/10 10:52:11;;;;;;;11.85;6.03;;;;;;;;;;5016771;28;20112;-66
2023/09/10 10:54:57;;;;;;;9.45;5.70;;;;;;;;;;5001907;28;20404;-66
2023/09/10 10:57:43;;;;;;;11.43;6.30;;;;;;;;;;5016397;28;20072;-66
2023/09/10 11:00:29;;;;;;;9.27;6.43;;;;;;;;;;5015900;28;20358;-66
2023/09/10 11:03:15;;;;;;;13.27;6.85;;;;;;;;;;5001491;28;20053;-66
2023/09/10 11:06:05;;;;;;;11.23;6.47;;;;;;;;;;5016348;28;20033;-66
2023/09/10 11:08:50;;;;;;;6.78;5.10;;;;;;;;;;5016767;28;20037;-72
2023/09/10 11:11:37;;;;;;;12.32;6.05;;;;;;;;;;5015211;28;20048;-65
2023/09/10 11:14:22;;;;;;;11.98;6.85;;;;;;;;;;5016096;28;20076;-64
2023/09/10 11:17:35;;;;;;;17.42;6.38;;;;;;;;;;5015003;28;20026;-64
2023/09/10 11:20:39;;;;;;;11.57;6.72;;;;;;;;;;5015937;28;20034;-65
2023/09/10 11:23:25;;;;;;;12.02;6.05;;;;;;;;;;5015764;28;20033;-64
2023/09/10 11:26:13;;;;;;;11.73;6.10;;;;;;;;;;5016556;28;20113;-71
2023/09/10 11:28:59;;;;;;;9.48;6.75;;;;;;;;;;5014855;28;20088;-72
2023/09/10 11:31:46;;;;;;;9.90;6.00;;;;;;;;;;5015858;28;20465;-71
2023/09/10 11:34:32;;;;;;;9.35;5.60;;;;;;;;;;5015711;28;20021;-71
2023/09/10 11:37:20;;;;;;;12.20;6.75;;;;;;;;;;5015632;28;20105;-72
2023/09/10 11:40:06;;;;;;;9.68;6.53;;;;;;;;;;5015930;28;20034;-72
2023/09/10 11:42:52;;;;;;;11.40;7.35;;;;;;;;;;5000699;28;20041;-72
2023/09/10 11:45:38;;;;;;;9.10;5.78;;;;;;;;;;5015546;28;20092;-71
2023/09/10 11:48:25;;;;;;;8.07;5.57;;;;;;;;;;5014349;28;20137;-69
2023/09/10 11:51:11;;;;;;;14.93;7.40;;;;;;;;;;5015551;28;20033;-68
2023/09/10 11:53:57;;;;;;;10.98;6.93;;;;;;;;;;5014201;28;20026;-68
2023/09/10 11:56:46;;;;;;;10.75;6.65;;;;;;;;;;5015353;28;20076;-68
2023/09/10 11:59:31;;;;;;;13.85;6.75;;;;;;;;;;5015418;28;20034;-69
2023/09/10 12:02:18;;;;;;;8.52;6.22;;;;;;;;;;5014296;28;20080;-67
2023/09/10 12:05:06;;;;;;;14.32;7.40;;;;;;;;;;5015273;28;20083;-72
2023/09/10 12:07:52;;;;;;;9.90;6.75;;;;;;;;;;5014280;28;20030;-72
2023/09/10 12:10:38;;;;;;;10.93;6.80;;;;;;;;;;5013770;28;20046;-72
2023/09/10 12:13:24;;;;;;;10.23;6.15;;;;;;;;;;5000050;28;20208;-72
2023/09/10 12:16:11;;;;;;;10.70;6.63;;;;;;;;;;5014815;28;20033;-72
2023/09/10 12:18:57;;;;;;;12.20;6.95;;;;;;;;;;5015026;28;20029;-72
2023/09/10 12:21:43;;;;;;;15.10;6.47;;;;;;;;;;5014277;28;20389;-70
2023/09/10 12:24:28;;;;;;;8.68;6.35;;;;;;;;;;5014779;28;20044;-66
2023/09/10 12:27:14;;;;;;;10.75;6.28;;;;;;;;;;5014746;28;20038;-66
2023/09/10 12:30:00;;;;;;;9.05;6.13;;;;;;;;;;5015433;28;20037;-66
2023/09/10 12:32:46;;;;;;;8.93;5.90;;;;;;;;;;5013614;28;20030;-66
2023/09/10 12:35:31;;;;;;;12.23;7.13;;;;;;;;;;5013982;28;20033;-65
2023/09/10 12:38:18;;;;;;;10.80;5.72;;;;;;;;;;5014124;28;20111;-66
2023/09/10 12:41:03;;;;;;;10.70;6.20;;;;;;;;;;5014357;28;20034;-69
2023/09/10 12:43:49;;;;;;;8.82;6.13;;;;;;;;;;5013449;28;20034;-66
2023/09/10 12:46:35;;;;;;;9.43;6.38;;;;;;;;;;5013881;28;20156;-65
2023/09/10 12:49:21;;;;;;;13.35;6.30;;;;;;;;;;5014435;28;20038;-65
2023/09/10 12:52:06;;;;;;;9.00;5.35;;;;;;;;;;5014434;28;20025;-65
2023/09/10 12:54:52;;;;;;;10.40;6.55;;;;;;;;;;4998921;28;20388;-64
2023/09/10 12:57:38;;;;;;;9.60;5.30;;;;;;;;;;5013124;28;20029;-66
2023/09/10 13:00:24;;;;;;;8.48;5.22;;;;;;;;;;5013510;28;20071;-71
2023/09/10 13:03:10;;;;;;;10.07;5.57;;;;;;;;;;5014725;28;20030;-70
2023/09/10 13:05:56;;;;;;;9.35;6.63;;;;;;;;;;5012811;28;20029;-70
2023/09/10 13:08:41;;;;;;;8.80;5.35;;;;;;;;;;5014007;28;20030;-70
2023/09/10 13:11:27;;;;;;;8.82;5.80;;;;;;;;;;5012907;28;20040;-70
2023/09/10 13:14:12;;;;;;;10.73;6.22;;;;;;;;;;4999140;28;20600;-70
2023/09/10 13:16:58;;;;;;;9.18;5.65;;;;;;;;;;5013041;28;20077;-66
2023/09/10 13:19:44;;;;;;;10.07;5.60;;;;;;;;;;5012758;28;20060;-68
2023/09/10 13:22:29;;;;;;;11.10;5.57;;;;;;;;;;5013183;28;20029;-69
2023/09/10 13:25:15;;;;;;;9.68;6.18;;;;;;;;;;5012750;28;20030;-69
2023/09/10 13:28:00;;;;;;;9.50;5.97;;;;;;;;;;5012397;28;20473;-68
2023/09/10 13:30:46;;;;;;;10.65;6.18;;;;;;;;;;5012467;28;20026;-68
2023/09/10 13:33:31;;;;;;;9.50;5.93;;;;;;;;;;5012578;28;20034;-65
2023/09/10 13:36:17;;;;;;;14.40;6.70;;;;;;;;;;5012736;28;20393;-70
2023/09/10 13:39:03;;;;;;;8.63;5.85;;;;;;;;;;5012557;28;20445;-65
2023/09/10 13:41:49;;;;;;;9.05;5.78;;;;;;;;;;5013495;28;20036;-65
2023/09/10 13:44:34;;;;;;;8.18;5.63;;;;;;;;;;5012449;28;20392;-65
2023/09/10 13:47:20;;;;;;;10.50;5.97;;;;;;;;;;5012544;28;20029;-66
2023/09/10 13:50:06;;;;;;;11.50;5.18;;;;;;;;;;5013665;28;20042;-65
2023/09/10 13:52:51;;;;;;;10.40;5.57;;;;;;;;;;5013703;28;20034;-71
2023/09/10 13:55:37;;;;;;;7.50;5.20;;;;;;;;;;5012959;28;20474;-65
2023/09/10 13:58:22;;;;;;;9.75;6.00;;;;;;;;;;5013071;28;20034;-64
2023/09/10 14:01:09;;;;;;;8.30;5.45;;;;;;;;;;5012867;28;20092;-65
2023/09/10 14:03:55;;;;;;;6.90;4.75;;;;;;;;;;5013447;28;20048;-65
2023/09/10 14:06:40;;;;;;;9.70;5.75;;;;;;;;;;4999190;28;20113;-65
2023/09/10 14:09:26;;;;;;;9.95;5.57;;;;;;;;;;5012235;28;20528;-65
2023/09/10 14:12:12;;;;;;;10.13;5.65;;;;;;;;;;5013597;28;20040;-64
2023/09/10 14:14:57;;;;;;;10.05;5.35;;;;;;;;;;5012765;28;20092;-72
2023/09/10 14:17:43;;;;;;;8.88;5.45;;;;;;;;;;5012239;28;20022;-72
2023/09/10 14:20:28;;;;;;;9.70;6.25;;;;;;;;;;5012117;28;20018;-72
2023/09/10 14:23:14;;;;;;;10.18;5.82;;;;;;;;;;5012077;28;20374;-72
2023/09/10 14:26:00;;;;;;;9.30;5.45;;;;;;;;;;5013354;28;20037;-73
2023/09/10 14:28:46;;;;;;;6.60;4.30;;;;;;;;;;5012945;28;20034;-67
2023/09/10 14:31:31;;;;;;;9.75;5.47;;;;;;;;;;5014139;28;20029;-65
2023/09/10 14:34:17;;;;;;;10.43;5.32;;;;;;;;;;5015827;28;20080;-66
2023/09/10 14:37:02;;;;;;;7.68;4.97;;;;;;;;;;5015708;28;20030;-66
2023/09/10 14:39:48;;;;;;;8.10;5.50;;;;;;;;;;5016892;28;20061;-65
2023/09/10 14:42:35;;;;;;;11.50;5.75;;;;;;;;;;5016093;28;20041;-67
2023/09/10 14:45:21;;;;;;;10.23;6.32;;;;;;;;;;5016853;28;20029;-68
2023/09/10 14:48:07;;;;;;;10.23;5.75;;;;;;;;;;5016952;28;20069;-66
2023/09/10 14:50:52;;;;;;;10.98;6.10;;;;;;;;;;5016009;28;20037;-66
2023/09/10 14:53:38;;;;;;;9.63;5.50;;;;;;;;;;5015882;28;20539;-66
2023/09/10 14:56:24;;;;;;;7.15;4.60;;;;;;;;;;5016588;28;20041;-66
2023/09/10 14:59:10;;;;;;;10.07;5.45;;;;;;;;;;5016540;28;20133;-66
2023/09/10 15:01:55;;;;;;;9.70;5.90;;;;;;;;;;5015225;28;20034;-66
2023/09/10 15:04:41;;;;;;;11.73;5.88;;;;;;;;;;5015220;28;20400;-65
2023/09/10 15:07:26;;;;;;;10.30;5.97;;;;;;;;;;5015116;28;20025;-69
2023/09/10 15:10:12;;;;;;;9.30;5.82;;;;;;;;;;5015194;28;20026;-66
2023/09/10 15:12:58;;;;;;;11.48;5.47;;;;;;;;;;5016153;28;20087;-68
2023/09/10 15:15:44;;;;;;;7.18;4.90;;;;;;;;;;5001752;28;20034;-70
2023/09/10 15:18:29;;;;;;;16.98;6.38;;;;;;;;;;5014832;28;20045;-72
2023/09/10 15:21:15;;;;;;;10.88;5.63;;;;;;;;;;5015047;28;20028;-69
2023/09/10 15:24:00;;;;;;;8.70;5.55;;;;;;;;;;5014779;28;20034;-66
2023/09/10 15:26:46;;;;;;;13.23;5.45;;;;;;;;;;5014557;28;20396;-69
2023/09/10 15:29:32;;;;;;;9.40;5.40;;;;;;;;;;5014701;28;20032;-64
2023/09/10 15:32:18;;;;;;;8.13;5.47;;;;;;;;;;5001623;28;20022;-63
2023/09/10 15:35:04;;;;;;;14.80;5.75;;;;;;;;;;5015796;28;20046;-66
2023/09/10 15:37:49;;;;;;;13.80;5.90;;;;;;;;;;5015619;28;20388;-69
2023/09/10 15:40:35;;;;;;;8.98;6.20;;;;;;;;;;5014591;28;20431;-65
2023/09/10 15:43:21;;;;;;;12.85;5.85;;;;;;;;;;5015105;28;20451;-64
2023/09/10 15:46:06;;;;;;;11.43;6.40;;;;;;;;;;5016132;28;20022;-65
2023/09/10 15:48:52;;;;;;;5.90;4.20;;;;;;;;;;5014347;28;20044;-65
2023/09/10 15:51:38;;;;;;;8.90;5.97;;;;;;;;;;5014206;28;20112;-67
2023/09/10 15:54:23;;;;;;;10.48;5.65;;;;;;;;;;5016182;28;20038;-66
2023/09/10 15:57:09;;;;;;;8.30;5.53;;;;;;;;;;5014072;28;20045;-67
2023/09/10 15:59:55;;;;;;;9.15;5.20;;;;;;;;;;5014244;28;20428;-65
2023/09/10 16:02:41;;;;;;;10.45;6.07;;;;;;;;;;5015604;28;20044;-64
2023/09/10 16:05:27;;;;;;;8.40;6.25;;;;;;;;;;5014942;28;20080;-66
2023/09/10 16:08:13;;;;;;;9.18;5.13;;;;;;;;;;5013690;28;20049;-68
2023/09/10 16:10:59;;;;;;;10.25;6.10;;;;;;;;;;5014498;28;20033;-73
2023/09/10 16:13:44;;;;;;;7.43;4.80;;;;;;;;;;5014442;28;20030;-67
2023/09/10 16:16:30;;;;;;;8.18;4.93;;;;;;;;;;5014261;28;20049;-68
2023/09/10 16:19:15;;;;;;;9.73;5.13;;;;;;;;;;5013675;28;20053;-71
2023/09/10 16:22:01;;;;;;;13.52;6.57;;;;;;;;;;5013843;28;20037;-70
2023/09/10 16:24:46;;;;;;;13.75;5.97;;;;;;;;;;5013583;28;20037;-73